Time;durP1;ratioP1;P1;durP2;ratioP2;P2;SDS_P1;SDS_P2;PMS_P1;PMS_P2;Temp;Humidity;BMP_temperature;BMP_pressure;BME280_temperature;BME280_humidity;BME280_pressure;Samples;Min_cycle;Max_cycle;Signal;HPM_P1;HPM_P2
2021/04/12 04:46:49;;;;;;;13.27;8.70;;;;;;;;;;5753292;22;11302195;-78
2021/04/12 04:49:36;;;;;;;20.48;10.57;;;;;;;;;;6219929;23;20015;-78
2021/04/12 04:52:14;;;;;;;13.27;9.07;;;;;;;;;;6219546;23;20064;-78
2021/04/12 04:54:49;;;;;;;12.70;8.75;;;;;;;;;;6220360;23;19997;-78
2021/04/12 04:57:27;;;;;;;13.90;9.20;;;;;;;;;;6194260;23;20102;-78
2021/04/12 05:00:12;;;;;;;15.60;9.93;;;;;;;;;;6249825;22;20016;-84
2021/04/12 05:02:47;;;;;;;12.27;8.18;;;;;;;;;;6266164;22;20003;-84
2021/04/12 05:05:19;;;;;;;11.85;7.53;;;;;;;;;;6252314;23;20004;-84
2021/04/12 05:08:03;;;;;;;12.90;8.15;;;;;;;;;;6244655;23;20320;-84
2021/04/12 05:10:32;;;;;;;14.32;9.15;;;;;;;;;;6215129;23;20054;-84
2021/04/12 05:12:57;;;;;;;15.27;9.25;;;;;;;;;;6212516;23;20012;-83
2021/04/12 05:15:42;;;;;;;13.90;9.07;;;;;;;;;;6211728;23;19997;-83
2021/04/12 05:18:25;;;;;;;12.88;8.43;;;;;;;;;;6212278;23;20510;-83
2021/04/12 05:21:10;;;;;;;13.57;9.20;;;;;;;;;;6212778;23;20013;-83
2021/04/12 05:23:39;;;;;;;14.43;9.10;;;;;;;;;;6211027;23;20005;-83
2021/04/12 05:26:04;;;;;;;14.40;9.43;;;;;;;;;;6211006;23;20043;-83
2021/04/12 05:28:39;;;;;;;13.57;9.32;;;;;;;;;;6212433;23;20001;-82
2021/04/12 05:31:24;;;;;;;15.00;9.73;;;;;;;;;;6212628;23;20028;-83
2021/04/12 05:34:09;;;;;;;15.20;9.32;;;;;;;;;;6211223;23;20090;-82
2021/04/12 05:39:12;;;;;;;15.00;8.98;;;;;;;;;;5100632;27;20364;-81
2021/04/12 05:41:48;;;;;;;13.65;8.50;;;;;;;;;;5079686;28;20028;-81
2021/04/12 05:44:16;;;;;;;16.27;9.55;;;;;;;;;;5074831;28;20787;-82
2021/04/12 05:46:51;;;;;;;18.40;10.00;;;;;;;;;;5077365;28;20016;-82
2021/04/12 05:49:32;;;;;;;14.55;9.48;;;;;;;;;;5070811;28;20067;-82
2021/04/12 05:52:30;;;;;;;16.57;9.70;;;;;;;;;;5078887;28;20298;-82
2021/04/12 05:55:11;;;;;;;14.18;9.18;;;;;;;;;;5038271;28;20039;-82
2021/04/12 05:57:55;;;;;;;14.83;10.03;;;;;;;;;;5081735;28;20058;-81
2021/04/12 06:00:40;;;;;;;22.45;14.32;;;;;;;;;;5089121;28;20020;-81
2021/04/12 06:03:15;;;;;;;16.98;10.90;;;;;;;;;;5097029;28;20021;-81
2021/04/12 06:05:44;;;;;;;14.45;10.18;;;;;;;;;;5090864;28;20012;-80
2021/04/12 06:08:09;;;;;;;16.85;11.13;;;;;;;;;;5082370;28;20465;-81
2021/04/12 06:10:44;;;;;;;17.98;11.82;;;;;;;;;;5081122;28;20047;-81
2021/04/12 06:13:13;;;;;;;20.50;12.00;;;;;;;;;;5083485;28;20107;-81
2021/04/12 06:15:57;;;;;;;20.23;12.45;;;;;;;;;;5085557;28;20039;-80
2021/04/12 06:18:41;;;;;;;18.33;11.75;;;;;;;;;;5081188;28;20051;-80
2021/04/12 06:21:26;;;;;;;17.33;10.80;;;;;;;;;;5075763;28;20030;-81
2021/04/12 06:23:58;;;;;;;16.38;10.93;;;;;;;;;;5086405;28;20036;-81
2021/04/12 06:26:42;;;;;;;16.70;10.68;;;;;;;;;;5088633;28;20016;-81
2021/04/12 06:29:08;;;;;;;19.85;11.90;;;;;;;;;;5084019;28;20020;-81
2021/04/12 06:31:49;;;;;;;18.25;11.23;;;;;;;;;;5101474;28;20051;-80
2021/04/12 06:34:33;;;;;;;17.85;10.70;;;;;;;;;;5099090;28;20044;-81
2021/04/12 06:36:58;;;;;;;15.57;10.45;;;;;;;;;;5080214;28;20055;-81
2021/04/12 06:39:28;;;;;;;31.35;17.00;;;;;;;;;;5090957;28;20017;-80
2021/04/12 06:41:56;;;;;;;15.80;10.88;;;;;;;;;;5088254;28;20487;-81
2021/04/12 06:44:22;;;;;;;13.32;9.63;;;;;;;;;;5104189;28;20056;-81
2021/04/12 06:47:03;;;;;;;14.95;8.25;;;;;;;;;;5088669;28;20081;-80
2021/04/12 06:49:29;;;;;;;;;;;;;;;;;;5070590;28;20053;-81
2021/04/12 06:52:12;;;;;;;21.77;13.20;;;;;;;;;;5063831;28;19916;-81
2021/04/12 06:54:42;;;;;;;17.45;10.10;;;;;;;;;;5065797;28;20013;-80
2021/04/12 06:57:27;;;;;;;14.02;9.18;;;;;;;;;;5071604;28;20017;-80
2021/04/12 06:59:52;;;;;;;13.70;8.35;;;;;;;;;;5068583;28;20483;-80
2021/04/12 07:02:30;;;;;;;13.32;9.43;;;;;;;;;;5069817;28;20043;-80
2021/04/12 07:05:15;;;;;;;12.70;8.30;;;;;;;;;;5071008;28;20036;-80
2021/04/12 07:08:16;;;;;;;12.40;7.40;;;;;;;;;;5064989;28;20503;-80
2021/04/12 07:10:42;;;;;;;;;;;;;;;;;;5067388;28;20043;-80
2021/04/12 07:13:22;;;;;;;13.70;7.60;;;;;;;;;;5073560;28;19916;-80
2021/04/12 07:16:09;;;;;;;14.68;8.52;;;;;;;;;;5066773;28;20024;-80
2021/04/12 07:18:51;;;;;;;10.45;6.63;;;;;;;;;;5068133;28;20017;-80
2021/04/12 07:23:48;;;;;;;13.48;8.88;;;;;;;;;;5116322;27;20369;-80
2021/04/12 07:26:35;;;;;;;12.30;6.80;;;;;;;;;;5115904;28;20067;-81
2021/04/12 07:29:10;;;;;;;9.80;6.43;;;;;;;;;;5104634;28;20433;-81
2021/04/12 07:31:59;;;;;;;15.80;7.03;;;;;;;;;;5108877;28;20028;-81
2021/04/12 07:34:44;;;;;;;9.98;6.38;;;;;;;;;;5103653;28;20028;-80
2021/04/12 07:37:12;;;;;;;13.63;6.75;;;;;;;;;;5101337;28;20055;-80
2021/04/12 07:39:47;;;;;;;9.50;5.88;;;;;;;;;;5111550;28;20041;-80
2021/04/12 07:42:32;;;;;;;11.40;6.35;;;;;;;;;;5107499;28;20043;-80
2021/04/12 07:45:16;;;;;;;9.43;5.10;;;;;;;;;;5106049;28;20019;-80
2021/04/12 07:48:00;;;;;;;10.80;6.07;;;;;;;;;;5108438;28;20478;-80
2021/04/12 07:50:29;;;;;;;11.20;6.13;;;;;;;;;;5105419;28;20502;-80
2021/04/12 07:53:10;;;;;;;10.88;4.65;;;;;;;;;;5114790;27;20062;-80
2021/04/12 07:55:56;;;;;;;9.10;6.57;;;;;;;;;;5106180;28;20451;-80
2021/04/12 07:58:30;;;;;;;12.88;6.80;;;;;;;;;;5109249;28;20412;-80
2021/04/12 08:03:15;;;;;;;9.15;4.40;;;;;;;;;;5098998;27;20348;-80
2021/04/12 08:05:53;;;;;;;8.57;4.78;;;;;;;;;;5099762;28;20028;-82
2021/04/12 08:08:18;;;;;;;14.52;6.28;;;;;;;;;;5091678;28;20024;-81
2021/04/12 08:11:02;;;;;;;8.23;4.88;;;;;;;;;;5095065;28;20561;-81
2021/04/12 08:13:44;;;;;;;9.07;4.75;;;;;;;;;;5093091;28;20063;-81
2021/04/12 08:16:19;;;;;;;7.30;4.50;;;;;;;;;;5091378;28;20027;-79
2021/04/12 08:18:57;;;;;;;8.73;4.45;;;;;;;;;;5096776;28;20046;-82
2021/04/12 08:21:30;;;;;;;9.38;5.30;;;;;;;;;;5098130;28;20484;-80
2021/04/12 08:24:02;;;;;;;7.55;5.28;;;;;;;;;;5098583;28;20044;-79
2021/04/12 08:26:39;;;;;;;10.60;5.15;;;;;;;;;;5103778;28;20055;-79
2021/04/12 08:29:05;;;;;;;10.35;5.47;;;;;;;;;;5096200;28;20028;-82
2021/04/12 08:31:50;;;;;;;6.63;4.28;;;;;;;;;;5103162;28;20020;-81
2021/04/12 08:34:34;;;;;;;7.38;4.55;;;;;;;;;;5090872;28;20032;-82
2021/04/12 08:37:15;;;;;;;8.23;4.95;;;;;;;;;;5090856;28;20070;-82
2021/04/12 08:40:02;;;;;;;10.30;5.50;;;;;;;;;;5092302;28;20023;-79
2021/04/12 08:42:39;;;;;;;9.55;4.32;;;;;;;;;;5089699;28;20017;-82
2021/04/12 08:45:25;;;;;;;7.43;5.80;;;;;;;;;;5085927;28;20409;-80
2021/04/12 08:48:10;;;;;;;9.65;6.00;;;;;;;;;;5092584;28;20019;-82
2021/04/12 08:50:44;;;;;;;6.32;4.50;;;;;;;;;;5092194;28;20024;-82
2021/04/12 08:53:22;;;;;;;6.47;3.80;;;;;;;;;;5092451;28;20484;-81
2021/04/12 08:55:48;;;;;;;8.18;4.22;;;;;;;;;;5093100;28;20024;-80
2021/04/12 08:58:32;;;;;;;11.35;3.83;;;;;;;;;;5097609;28;20070;-79
2021/04/12 09:01:16;;;;;;;8.25;3.50;;;;;;;;;;5108545;28;20054;-80
2021/04/12 09:04:01;;;;;;;5.07;3.58;;;;;;;;;;5091948;28;20016;-80
2021/04/12 09:06:50;;;;;;;6.20;3.35;;;;;;;;;;5091199;28;20024;-80
2021/04/12 09:09:28;;;;;;;9.43;3.17;;;;;;;;;;5089511;28;20028;-82
2021/04/12 09:11:57;;;;;;;6.35;3.10;;;;;;;;;;5091652;28;20016;-81
2021/04/12 09:14:28;;;;;;;8.63;2.90;;;;;;;;;;5086111;28;20059;-82
2021/04/12 09:16:54;;;;;;;;;;;;;;;;;;5083324;28;20448;-82
2021/04/12 09:19:22;;;;;;;4.78;2.53;;;;;;;;;;5082084;28;19918;-81
2021/04/12 09:24:06;;;;;;;4.95;2.63;;;;;;;;;;5085716;28;20352;-83
2021/04/12 09:26:42;;;;;;;4.40;2.30;;;;;;;;;;5084596;28;20527;-81
2021/04/12 09:29:36;;;;;;;6.03;2.47;;;;;;;;;;5076312;28;20041;-82
2021/04/12 09:32:20;;;;;;;5.28;2.78;;;;;;;;;;5069232;28;20068;-83
2021/04/12 09:34:55;;;;;;;6.32;2.92;;;;;;;;;;5071464;28;20017;-80
2021/04/12 09:37:36;;;;;;;4.05;2.08;;;;;;;;;;5060356;28;20046;-79
2021/04/12 09:40:20;;;;;;;7.30;2.40;;;;;;;;;;5066387;28;20055;-80
2021/04/12 09:42:55;;;;;;;3.78;2.13;;;;;;;;;;5069983;28;20212;-80
2021/04/12 09:45:40;;;;;;;4.97;1.67;;;;;;;;;;5067444;28;20024;-81
2021/04/12 09:48:19;;;;;;;3.00;1.67;;;;;;;;;;5050570;28;20349;-80
2021/04/12 09:50:45;;;;;;;5.60;2.63;;;;;;;;;;5058930;28;20040;-81
2021/04/12 09:53:20;;;;;;;10.10;3.50;;;;;;;;;;5061567;28;20024;-80
2021/04/12 09:56:06;;;;;;;5.72;2.33;;;;;;;;;;5075051;28;20032;-80
2021/04/12 09:58:50;;;;;;;6.03;2.28;;;;;;;;;;5073438;28;20047;-80
2021/04/12 10:01:25;;;;;;;3.45;1.60;;;;;;;;;;5075470;28;20071;-81
2021/04/12 10:03:50;;;;;;;6.32;2.00;;;;;;;;;;5058887;28;20028;-81
2021/04/12 10:06:35;;;;;;;4.05;1.85;;;;;;;;;;5075286;28;20029;-81
2021/04/12 10:09:12;;;;;;;3.45;1.63;;;;;;;;;;5072814;28;20029;-81
2021/04/12 10:11:49;;;;;;;3.13;1.55;;;;;;;;;;5077897;28;20035;-80
2021/04/12 10:14:20;;;;;;;5.00;1.92;;;;;;;;;;5059697;28;20359;-81
2021/04/12 10:17:03;;;;;;;3.33;2.03;;;;;;;;;;5073631;28;20024;-81
2021/04/12 10:19:32;;;;;;;4.20;1.77;;;;;;;;;;5073106;28;20039;-81
2021/04/12 10:22:02;;;;;;;5.03;1.67;;;;;;;;;;5041739;28;20565;-80
2021/04/12 10:24:31;;;;;;;3.80;1.40;;;;;;;;;;5073891;28;20109;-81
2021/04/12 10:27:20;;;;;;;3.60;1.65;;;;;;;;;;5069390;28;20025;-81
2021/04/12 10:29:54;;;;;;;3.20;1.60;;;;;;;;;;5051414;28;20037;-81
2021/04/12 10:32:25;;;;;;;5.03;1.80;;;;;;;;;;5077627;28;20052;-81
2021/04/12 10:34:58;;;;;;;6.30;1.95;;;;;;;;;;5074182;28;20078;-81
2021/04/12 10:37:37;;;;;;;3.40;1.70;;;;;;;;;;5059240;28;20033;-82
2021/04/12 10:40:03;;;;;;;3.70;1.80;;;;;;;;;;5063009;28;20028;-82
2021/04/12 10:42:31;;;;;;;3.83;1.65;;;;;;;;;;5068110;28;20017;-81
2021/04/12 10:45:06;;;;;;;4.07;2.03;;;;;;;;;;5062194;28;20028;-81
2021/04/12 10:47:41;;;;;;;3.85;1.85;;;;;;;;;;5058436;28;20021;-82
2021/04/12 10:50:14;;;;;;;4.15;1.63;;;;;;;;;;5058861;28;20048;-82
2021/04/12 10:52:53;;;;;;;3.90;1.67;;;;;;;;;;5066180;28;20380;-82
2021/04/12 10:55:21;;;;;;;3.40;1.58;;;;;;;;;;5067804;28;20146;-81
2021/04/12 10:58:06;;;;;;;2.75;1.30;;;;;;;;;;5056898;28;20025;-82
2021/04/12 11:00:36;;;;;;;4.03;1.60;;;;;;;;;;5049129;28;20016;-80
2021/04/12 11:03:10;;;;;;;3.28;1.30;;;;;;;;;;5062956;28;20039;-82
2021/04/12 11:05:36;;;;;;;5.93;1.90;;;;;;;;;;5063249;28;20025;-81
2021/04/12 11:08:15;;;;;;;4.28;2.08;;;;;;;;;;5066430;28;20037;-81
2021/04/12 11:10:45;;;;;;;4.22;2.13;;;;;;;;;;5044030;28;20412;-84
2021/04/12 11:13:24;;;;;;;3.70;1.90;;;;;;;;;;5067609;28;20477;-81
2021/04/12 11:15:49;;;;;;;4.15;1.30;;;;;;;;;;5062248;28;20028;-81
2021/04/12 11:18:30;;;;;;;3.80;1.77;;;;;;;;;;5052174;28;20067;-81
2021/04/12 11:21:08;;;;;;;5.40;2.25;;;;;;;;;;5059420;28;20111;-82
2021/04/12 11:23:39;;;;;;;2.50;1.05;;;;;;;;;;5072808;28;20568;-81
2021/04/12 11:26:09;;;;;;;4.05;1.10;;;;;;;;;;5065039;28;20040;-82
2021/04/12 11:28:55;;;;;;;3.40;1.40;;;;;;;;;;5064111;28;20423;-82
2021/04/12 11:31:27;;;;;;;3.55;1.38;;;;;;;;;;5041216;28;20037;-80
2021/04/12 11:34:02;;;;;;;2.47;1.10;;;;;;;;;;5066636;28;20484;-82
2021/04/12 11:36:28;;;;;;;5.28;1.40;;;;;;;;;;5057586;28;20036;-84
2021/04/12 11:39:00;;;;;;;4.30;1.00;;;;;;;;;;5063371;28;20028;-81
2021/04/12 11:41:29;;;;;;;2.38;1.23;;;;;;;;;;5058326;28;20017;-83
2021/04/12 11:43:56;;;;;;;3.15;1.27;;;;;;;;;;5058328;28;20021;-81
2021/04/12 11:46:49;;;;;;;4.15;1.33;;;;;;;;;;5062760;28;20123;-81
2021/04/12 11:49:24;;;;;;;2.75;1.10;;;;;;;;;;5062008;28;20035;-82
2021/04/12 11:52:10;;;;;;;3.83;1.88;;;;;;;;;;5062476;28;20028;-82
2021/04/12 11:54:55;;;;;;;5.32;2.88;;;;;;;;;;5063895;28;20477;-82
2021/04/12 11:57:21;;;;;;;3.58;1.90;;;;;;;;;;5062230;28;20024;-85
2021/04/12 11:59:49;;;;;;;5.80;2.53;;;;;;;;;;5065306;28;20066;-81
2021/04/12 12:02:41;;;;;;;4.18;2.03;;;;;;;;;;5062549;28;20046;-84
2021/04/12 12:05:07;;;;;;;6.28;1.80;;;;;;;;;;5024125;28;20447;-84
2021/04/12 12:07:37;;;;;;;3.58;1.23;;;;;;;;;;5065005;28;20024;-82
2021/04/12 12:10:12;;;;;;;4.22;1.35;;;;;;;;;;5062046;28;20024;-82
2021/04/12 12:12:50;;;;;;;4.25;1.52;;;;;;;;;;5054545;28;20035;-81
2021/04/12 12:15:22;;;;;;;2.38;1.10;;;;;;;;;;5054887;28;20493;-81
2021/04/12 12:18:06;;;;;;;4.57;1.95;;;;;;;;;;5040816;28;20025;-82
2021/04/12 12:23:09;;;;;;;5.32;1.50;;;;;;;;;;5111945;27;20906;-80
2021/04/12 12:25:40;;;;;;;3.05;1.73;;;;;;;;;;5088426;28;20028;-82
2021/04/12 12:28:11;;;;;;;3.72;1.67;;;;;;;;;;5088860;28;20443;-82
2021/04/12 12:30:51;;;;;;;3.95;1.38;;;;;;;;;;5069538;28;20021;-80
2021/04/12 12:33:36;;;;;;;3.38;1.20;;;;;;;;;;5063782;28;20052;-79
2021/04/12 12:36:07;;;;;;;2.92;1.20;;;;;;;;;;5060861;28;20029;-81
2021/04/12 12:39:02;;;;;;;4.53;1.90;;;;;;;;;;5083897;28;20080;-81
2021/04/12 12:41:30;;;;;;;7.90;5.70;;;;;;;;;;5049466;28;20072;-83
2021/04/12 12:44:05;;;;;;;8.18;4.60;;;;;;;;;;5079533;28;20124;-84
2021/04/12 12:46:32;;;;;;;4.57;2.00;;;;;;;;;;5063263;28;20028;-83
2021/04/12 12:49:00;;;;;;;3.75;2.03;;;;;;;;;;5064161;28;20108;-82
2021/04/12 12:51:35;;;;;;;4.18;2.20;;;;;;;;;;5076012;28;20016;-82
2021/04/12 12:54:09;;;;;;;10.57;5.78;;;;;;;;;;5068493;28;20408;-83
2021/04/12 12:56:38;;;;;;;6.07;3.10;;;;;;;;;;5085579;28;20025;-83
2021/04/12 12:59:08;;;;;;;3.83;2.00;;;;;;;;;;5067189;28;20054;-83
2021/04/12 13:01:35;;;;;;;4.30;2.30;;;;;;;;;;5060316;28;20056;-83
2021/04/12 13:04:27;;;;;;;3.35;1.65;;;;;;;;;;5072879;28;20028;-81
2021/04/12 13:06:54;;;;;;;4.57;1.60;;;;;;;;;;5066698;28;20097;-84
2021/04/12 13:09:19;;;;;;;4.38;1.70;;;;;;;;;;5069909;28;20023;-82
2021/04/12 13:11:47;;;;;;;4.40;1.85;;;;;;;;;;5069740;28;20044;-83
2021/04/12 13:14:16;;;;;;;11.02;2.78;;;;;;;;;;5067425;28;20050;-82
2021/04/12 13:16:43;;;;;;;3.47;1.85;;;;;;;;;;5068537;28;20048;-83
2021/04/12 13:21:28;;;;;;;4.03;1.52;;;;;;;;;;5113977;27;20352;-84
2021/04/12 13:23:56;;;;;;;4.05;1.50;;;;;;;;;;5087738;28;20090;-82
2021/04/12 13:26:28;;;;;;;3.60;1.20;;;;;;;;;;5086104;28;20032;-82
2021/04/12 13:28:55;;;;;;;3.38;1.48;;;;;;;;;;5090066;28;20016;-83
2021/04/12 13:31:31;;;;;;;3.70;1.42;;;;;;;;;;5086460;28;20024;-83
2021/04/12 13:34:02;;;;;;;2.58;1.33;;;;;;;;;;5090001;28;20549;-80
2021/04/12 13:36:37;;;;;;;3.53;1.30;;;;;;;;;;5093548;28;20044;-86
2021/04/12 13:39:05;;;;;;;3.78;1.92;;;;;;;;;;5084032;28;20052;-81
2021/04/12 13:41:38;;;;;;;4.05;1.88;;;;;;;;;;5091737;28;20023;-81
2021/04/12 13:44:08;;;;;;;4.80;2.13;;;;;;;;;;5094515;28;20661;-81
2021/04/12 13:46:49;;;;;;;3.53;1.40;;;;;;;;;;5095968;28;20126;-79
2021/04/12 13:49:15;;;;;;;;;;;;;;;;;;5095819;28;20020;-80
2021/04/12 13:51:43;;;;;;;3.20;1.65;;;;;;;;;;5097016;28;20364;-79
2021/04/12 13:54:18;;;;;;;4.03;1.30;;;;;;;;;;5086719;28;20051;-79
2021/04/12 13:56:49;;;;;;;2.85;1.60;;;;;;;;;;5084558;28;20028;-79
2021/04/12 14:01:38;;;;;;;3.10;1.52;;;;;;;;;;5086184;27;25109;-79
2021/04/12 14:04:15;;;;;;;4.15;1.48;;;;;;;;;;5072275;28;20038;-80
2021/04/12 14:06:45;;;;;;;6.03;1.77;;;;;;;;;;5082600;28;20020;-80
2021/04/12 14:09:32;;;;;;;3.20;1.50;;;;;;;;;;5081637;28;20503;-81
2021/04/12 14:12:01;;;;;;;2.45;1.10;;;;;;;;;;5080115;28;20020;-78
2021/04/12 14:14:29;;;;;;;5.55;1.35;;;;;;;;;;5079810;28;20667;-78
2021/04/12 14:17:17;;;;;;;2.85;1.48;;;;;;;;;;5082289;28;20024;-79
2021/04/12 14:19:46;;;;;;;2.70;1.30;;;;;;;;;;5074715;28;20071;-79
2021/04/12 14:22:26;;;;;;;3.05;1.38;;;;;;;;;;5084392;28;20036;-78
2021/04/12 14:24:54;;;;;;;4.43;1.58;;;;;;;;;;5082451;28;20542;-78
2021/04/12 14:27:19;;;;;;;3.47;1.40;;;;;;;;;;5081312;28;20044;-78
2021/04/12 14:29:48;;;;;;;4.03;1.00;;;;;;;;;;5082817;28;20574;-79
2021/04/12 14:32:21;;;;;;;3.67;1.20;;;;;;;;;;5076966;28;20440;-79
2021/04/12 14:34:49;;;;;;;3.20;1.83;;;;;;;;;;5077224;28;20032;-77
2021/04/12 14:37:23;;;;;;;2.97;1.40;;;;;;;;;;5082133;28;20052;-78
2021/04/12 14:39:50;;;;;;;2.35;1.02;;;;;;;;;;5080452;28;20070;-75
2021/04/12 14:42:20;;;;;;;2.22;1.05;;;;;;;;;;5067762;28;20135;-79
2021/04/12 14:44:50;;;;;;;3.28;1.40;;;;;;;;;;5083787;28;20075;-78
2021/04/12 14:47:30;;;;;;;3.03;1.10;;;;;;;;;;5084096;28;20039;-77
2021/04/12 14:50:02;;;;;;;3.95;1.60;;;;;;;;;;5081748;28;20043;-78
2021/04/12 14:52:34;;;;;;;2.28;1.10;;;;;;;;;;5064716;28;20025;-77
2021/04/12 14:55:08;;;;;;;3.33;1.02;;;;;;;;;;5078511;28;20502;-77
2021/04/12 14:57:36;;;;;;;2.10;0.85;;;;;;;;;;5077773;28;20033;-77
2021/04/12 15:00:07;;;;;;;4.38;1.40;;;;;;;;;;5073067;28;20017;-77
2021/04/12 15:02:33;;;;;;;;;;;;;;;;;;5075172;28;20493;-77
2021/04/12 15:05:19;;;;;;;2.30;0.82;;;;;;;;;;5073035;28;19916;-77
2021/04/12 15:10:06;;;;;;;2.10;0.90;;;;;;;;;;5062980;27;20396;-78
2021/04/12 15:12:32;;;;;;;4.20;1.20;;;;;;;;;;5055659;28;20416;-77
2021/04/12 15:15:01;;;;;;;3.33;1.55;;;;;;;;;;5062589;28;20035;-77
2021/04/12 15:17:32;;;;;;;2.13;1.17;;;;;;;;;;5060005;28;20429;-78
2021/04/12 15:20:10;;;;;;;2.30;1.10;;;;;;;;;;5063394;28;20036;-78
2021/04/12 15:22:44;;;;;;;3.33;1.55;;;;;;;;;;5072077;28;20251;-77
2021/04/12 15:25:22;;;;;;;4.32;1.20;;;;;;;;;;5059287;28;20079;-77
2021/04/12 15:27:56;;;;;;;2.53;1.10;;;;;;;;;;5059047;28;20095;-78
2021/04/12 15:30:23;;;;;;;2.40;1.02;;;;;;;;;;5061481;28;20489;-78
2021/04/12 15:32:52;;;;;;;3.35;1.40;;;;;;;;;;5063976;28;20049;-78
2021/04/12 15:35:20;;;;;;;3.35;1.75;;;;;;;;;;5064861;28;20016;-79
2021/04/12 15:37:58;;;;;;;2.67;1.42;;;;;;;;;;5061009;28;20104;-78
2021/04/12 15:40:27;;;;;;;4.75;1.60;;;;;;;;;;5060427;28;20469;-79
2021/04/12 15:42:58;;;;;;;2.95;1.30;;;;;;;;;;5060777;28;20141;-78
2021/04/12 15:45:28;;;;;;;2.92;1.08;;;;;;;;;;5064305;28;20103;-79
2021/04/12 15:47:54;;;;;;;3.10;1.27;;;;;;;;;;5063477;28;20107;-78
2021/04/12 15:50:28;;;;;;;3.60;1.10;;;;;;;;;;5059240;28;20017;-79
2021/04/12 15:55:18;;;;;;;3.72;1.50;;;;;;;;;;5108382;27;20355;-78
2021/04/12 15:57:45;;;;;;;3.88;1.45;;;;;;;;;;5099303;28;20149;-77
2021/04/12 16:00:19;;;;;;;2.40;1.00;;;;;;;;;;5092407;28;20055;-77
2021/04/12 16:03:09;;;;;;;2.38;1.45;;;;;;;;;;5096767;28;20063;-79
2021/04/12 16:05:43;;;;;;;2.50;1.00;;;;;;;;;;5098766;28;20407;-76
2021/04/12 16:08:27;;;;;;;3.10;1.25;;;;;;;;;;5100155;28;20435;-82
2021/04/12 16:10:54;;;;;;;3.13;1.27;;;;;;;;;;5098933;28;20054;-79
2021/04/12 16:13:29;;;;;;;3.28;1.23;;;;;;;;;;5104017;28;20016;-78
2021/04/12 16:15:57;;;;;;;4.25;1.17;;;;;;;;;;5102558;28;20040;-80
2021/04/12 16:18:29;;;;;;;2.22;1.00;;;;;;;;;;5100306;28;20027;-79
2021/04/12 16:20:58;;;;;;;2.97;1.63;;;;;;;;;;5099498;28;20092;-77
2021/04/12 16:23:30;;;;;;;2.75;1.33;;;;;;;;;;5097222;28;20019;-79
2021/04/12 16:26:03;;;;;;;3.47;1.40;;;;;;;;;;5111870;28;20039;-80
2021/04/12 16:28:33;;;;;;;3.40;0.80;;;;;;;;;;5103982;28;20027;-78
2021/04/12 16:31:03;;;;;;;2.25;0.90;;;;;;;;;;5100465;28;20063;-79
2021/04/12 16:33:43;;;;;;;4.25;1.55;;;;;;;;;;5098673;28;20021;-79
2021/04/12 16:36:10;;;;;;;3.63;1.45;;;;;;;;;;5093850;28;20451;-78
2021/04/12 16:38:39;;;;;;;1.88;0.90;;;;;;;;;;5096095;28;20024;-77
2021/04/12 16:41:04;;;;;;;4.05;1.10;;;;;;;;;;5095770;28;20618;-78
2021/04/12 16:43:39;;;;;;;5.97;2.28;;;;;;;;;;5084976;27;61597;-78
2021/04/12 16:46:28;;;;;;;2.70;1.25;;;;;;;;;;5098475;28;20060;-78
2021/04/12 16:48:56;;;;;;;3.22;1.00;;;;;;;;;;5081438;28;20036;-77
2021/04/12 16:51:25;;;;;;;3.63;1.70;;;;;;;;;;5095446;28;20047;-79
2021/04/12 16:53:53;;;;;;;3.25;2.00;;;;;;;;;;5101024;28;20027;-79
2021/04/12 16:56:33;;;;;;;4.18;1.83;;;;;;;;;;5099937;28;20037;-77
2021/04/12 16:59:20;;;;;;;5.85;2.13;;;;;;;;;;5098793;28;20436;-78
2021/04/12 17:01:52;;;;;;;4.20;1.35;;;;;;;;;;5100830;28;20731;-77
2021/04/12 17:04:27;;;;;;;2.90;1.63;;;;;;;;;;5096498;28;20403;-79
2021/04/12 17:07:01;;;;;;;5.35;1.63;;;;;;;;;;5094633;22;20068;-81
2021/04/12 17:09:36;;;;;;;3.30;1.67;;;;;;;;;;5063418;28;20040;-82
2021/04/12 17:12:02;;;;;;;3.60;2.08;;;;;;;;;;5061886;28;20056;-82
2021/04/12 17:14:33;;;;;;;5.15;2.25;;;;;;;;;;5061930;28;20060;-82
2021/04/12 17:17:08;;;;;;;5.43;2.42;;;;;;;;;;5059817;28;20017;-83
2021/04/12 17:19:37;;;;;;;16.63;7.70;;;;;;;;;;5063116;28;20347;-83
2021/04/12 17:22:24;;;;;;;17.50;8.30;;;;;;;;;;5083869;28;20033;-83
2021/04/12 17:25:11;;;;;;;10.88;4.25;;;;;;;;;;5063235;28;20051;-84
2021/04/12 17:27:43;;;;;;;9.27;3.78;;;;;;;;;;5063527;28;20036;-83
2021/04/12 17:30:29;;;;;;;4.00;1.75;;;;;;;;;;5063166;28;20179;-83
2021/04/12 17:32:56;;;;;;;4.65;1.98;;;;;;;;;;5065386;28;20052;-83
2021/04/12 17:35:25;;;;;;;4.68;2.10;;;;;;;;;;5064394;28;20067;-82
2021/04/12 17:38:20;;;;;;;4.78;2.25;;;;;;;;;;5063547;28;20040;-82
2021/04/12 17:41:04;;;;;;;4.90;2.38;;;;;;;;;;5044678;28;20029;-83
2021/04/12 17:43:36;;;;;;;5.53;1.52;;;;;;;;;;5058951;28;20039;-82
2021/04/12 17:46:04;;;;;;;3.05;1.40;;;;;;;;;;5068698;28;20416;-83
2021/04/12 17:49:09;;;;;;;3.00;1.15;;;;;;;;;;5070410;28;20020;-83
2021/04/12 17:51:46;;;;;;;2.30;1.10;;;;;;;;;;4999676;28;20070;-83
2021/04/12 17:54:18;;;;;;;3.35;1.65;;;;;;;;;;5004573;28;20030;-83
2021/04/12 17:56:48;;;;;;;2.92;1.15;;;;;;;;;;5040297;28;20166;-82
2021/04/12 17:59:18;;;;;;;2.13;0.80;;;;;;;;;;5062634;28;20040;-83
2021/04/12 18:02:04;;;;;;;3.33;1.20;;;;;;;;;;5061084;28;20166;-82
2021/04/12 18:04:33;;;;;;;5.47;2.47;;;;;;;;;;5057307;28;20820;-83
2021/04/12 18:07:10;;;;;;;7.95;3.47;;;;;;;;;;5062058;28;20029;-84
2021/04/12 18:09:42;;;;;;;6.60;3.60;;;;;;;;;;5060784;28;20048;-84
2021/04/12 18:12:14;;;;;;;6.43;3.10;;;;;;;;;;5079933;28;20013;-83
2021/04/12 18:14:42;;;;;;;5.40;2.97;;;;;;;;;;5065610;28;20036;-84
2021/04/12 18:17:27;;;;;;;2.60;1.40;;;;;;;;;;5061336;28;20021;-83
2021/04/12 18:20:11;;;;;;;2.20;1.00;;;;;;;;;;5077026;28;20104;-83
2021/04/12 18:22:39;;;;;;;2.00;0.80;;;;;;;;;;5077371;28;20024;-84
2021/04/12 18:25:05;;;;;;;2.05;0.77;;;;;;;;;;5062094;28;20520;-83
2021/04/12 18:27:37;;;;;;;2.00;0.70;;;;;;;;;;5063433;28;20060;-83
2021/04/12 18:30:05;;;;;;;2.10;0.90;;;;;;;;;;5060400;28;20037;-83
2021/04/12 18:32:34;;;;;;;1.90;0.80;;;;;;;;;;5059900;28;20024;-83
2021/04/12 18:35:02;;;;;;;6.13;4.65;;;;;;;;;;5061169;28;20024;-84
2021/04/12 18:37:33;;;;;;;3.78;2.42;;;;;;;;;;5074322;28;20056;-84
2021/04/12 18:40:00;;;;;;;4.20;2.53;;;;;;;;;;5055755;28;20091;-84
2021/04/12 18:42:31;;;;;;;3.17;1.73;;;;;;;;;;5066978;28;20256;-83
2021/04/12 18:45:08;;;;;;;2.72;1.52;;;;;;;;;;5061042;28;20423;-83
2021/04/12 18:47:44;;;;;;;3.40;1.10;;;;;;;;;;5063435;28;20045;-82
2021/04/12 18:50:19;;;;;;;2.33;0.95;;;;;;;;;;5064994;28;20029;-83
2021/04/12 18:52:47;;;;;;;3.78;1.70;;;;;;;;;;5060920;28;20052;-83
2021/04/12 18:55:19;;;;;;;3.85;2.58;;;;;;;;;;5061727;28;20029;-84
2021/04/12 18:57:48;;;;;;;3.05;1.70;;;;;;;;;;5057893;28;20025;-84
2021/04/12 19:00:33;;;;;;;2.33;1.08;;;;;;;;;;5059805;28;20025;-82
2021/04/12 19:03:06;;;;;;;6.30;4.38;;;;;;;;;;5063320;28;20021;-84
2021/04/12 19:05:34;;;;;;;3.25;1.40;;;;;;;;;;5065939;28;20029;-83
2021/04/12 19:08:07;;;;;;;3.17;1.10;;;;;;;;;;5064449;28;20025;-84
2021/04/12 19:10:47;;;;;;;2.80;0.80;;;;;;;;;;5066572;28;20103;-84
2021/04/12 19:13:30;;;;;;;2.58;0.90;;;;;;;;;;5064488;28;20051;-83
2021/04/12 19:15:57;;;;;;;5.28;1.23;;;;;;;;;;5065017;28;20062;-84
2021/04/12 19:18:23;;;;;;;4.47;2.45;;;;;;;;;;5067525;28;20093;-84
2021/04/12 19:20:57;;;;;;;5.53;1.55;;;;;;;;;;5067514;28;20017;-84
2021/04/12 19:23:31;;;;;;;1.85;0.90;;;;;;;;;;5067385;28;20025;-84
2021/04/12 19:26:02;;;;;;;4.32;1.35;;;;;;;;;;5062077;28;20025;-85
2021/04/12 19:28:49;;;;;;;2.75;1.10;;;;;;;;;;5065990;28;20025;-84
2021/04/12 19:31:37;;;;;;;1.55;0.65;;;;;;;;;;5067418;28;20048;-84
2021/04/12 19:34:20;;;;;;;2.55;1.10;;;;;;;;;;5083202;28;20055;-85
2021/04/12 19:36:54;;;;;;;3.75;0.80;;;;;;;;;;5062487;28;20032;-84
2021/04/12 19:39:23;;;;;;;4.07;0.93;;;;;;;;;;5067143;28;20014;-85
2021/04/12 19:41:48;;;;;;;1.98;0.63;;;;;;;;;;5083187;28;20051;-84
2021/04/12 19:44:14;;;;;;;1.98;0.90;;;;;;;;;;5064355;28;20021;-85
2021/04/12 19:46:46;;;;;;;2.20;1.00;;;;;;;;;;5059544;28;20048;-83
2021/04/12 19:49:13;;;;;;;2.92;1.25;;;;;;;;;;5063995;28;20029;-84
2021/04/12 19:51:42;;;;;;;3.85;1.00;;;;;;;;;;5065235;28;20115;-84
2021/04/12 19:54:26;;;;;;;2.20;0.80;;;;;;;;;;5066169;28;20029;-83
2021/04/12 19:57:06;;;;;;;1.70;0.70;;;;;;;;;;5067431;28;20008;-84
2021/04/12 19:59:51;;;;;;;3.90;2.28;;;;;;;;;;5077878;28;20014;-83
2021/04/12 20:02:43;;;;;;;2.05;0.80;;;;;;;;;;5058203;28;20017;-85
2021/04/12 20:05:12;;;;;;;4.18;1.35;;;;;;;;;;5054178;28;20033;-85
2021/04/12 20:07:41;;;;;;;1.65;0.70;;;;;;;;;;5063534;28;20056;-85
2021/04/12 20:10:17;;;;;;;2.40;0.88;;;;;;;;;;5067591;28;20079;-85
2021/04/12 20:12:42;;;;;;;4.57;1.60;;;;;;;;;;5063112;28;20017;-83
2021/04/12 20:15:11;;;;;;;3.00;1.30;;;;;;;;;;5063954;28;20461;-83
2021/04/12 20:17:56;;;;;;;3.15;0.98;;;;;;;;;;5065533;28;20052;-83
2021/04/12 20:20:27;;;;;;;1.65;0.77;;;;;;;;;;5064620;28;20029;-84
2021/04/12 20:22:53;;;;;;;3.65;1.10;;;;;;;;;;5064377;28;20021;-84
2021/04/12 20:25:25;;;;;;;3.63;1.10;;;;;;;;;;5062243;28;20029;-84
2021/04/12 20:28:07;;;;;;;3.80;1.10;;;;;;;;;;5064180;28;20033;-83
2021/04/12 20:30:39;;;;;;;3.95;1.10;;;;;;;;;;5061475;28;20096;-83
2021/04/12 20:33:24;;;;;;;2.25;0.95;;;;;;;;;;5059907;28;20114;-83